createdAt,value
2018-08-03T00:02:30.685Z,9.23
2018-08-03T00:05:01.465Z,9.53
2018-08-03T00:07:32.132Z,8.47
2018-08-03T00:10:02.864Z,8.17
2018-08-03T00:12:34.040Z,11.13
2018-08-03T00:15:05.550Z,9.77
2018-08-03T00:17:36.314Z,8.73
2018-08-03T00:20:07.898Z,8.63
2018-08-03T00:22:38.574Z,8.73
2018-08-03T00:25:10.388Z,10.93
2018-08-03T00:27:41.029Z,8.53
2018-08-03T00:30:11.748Z,10.17
2018-08-03T00:32:42.694Z,9.10
2018-08-03T00:35:13.433Z,9.37
2018-08-03T00:37:44.143Z,8.97
2018-08-03T00:40:14.777Z,10.80
2018-08-03T00:42:45.496Z,10.73
2018-08-03T00:45:16.211Z,11.20
2018-08-03T00:47:47.059Z,11.30
2018-08-03T00:50:17.813Z,11.40
2018-08-03T00:52:48.546Z,12.90
2018-08-03T00:55:19.177Z,11.73
2018-08-03T00:57:49.824Z,11.53
2018-08-03T01:00:20.876Z,11.73
2018-08-03T01:02:51.597Z,12.40
2018-08-03T01:05:22.315Z,12.10
2018-08-03T01:07:53.162Z,10.40
2018-08-03T01:10:23.966Z,9.97
2018-08-03T01:12:54.588Z,9.30
2018-08-03T01:15:25.367Z,9.87
2018-08-03T01:17:56.099Z,8.73
2018-08-03T01:20:26.860Z,9.60
2018-08-03T01:22:57.550Z,10.43
2018-08-03T01:25:28.300Z,8.87
2018-08-03T01:27:58.911Z,9.17
2018-08-03T01:30:29.636Z,9.27
2018-08-03T01:33:00.720Z,9.30
2018-08-03T01:35:31.933Z,8.80
2018-08-03T01:38:02.397Z,11.07
2018-08-03T01:40:33.184Z,8.93
2018-08-03T01:43:04.247Z,8.57
2018-08-03T01:45:35.107Z,11.07
2018-08-03T01:48:06.050Z,9.27
2018-08-03T01:50:36.630Z,9.43
2018-08-03T01:53:07.518Z,8.83
2018-08-03T01:55:38.703Z,9.00
2018-08-03T01:58:09.767Z,9.07
2018-08-03T02:00:40.658Z,10.03
2018-08-03T02:03:12.100Z,9.13
2018-08-03T02:05:43.117Z,9.97
2018-08-03T02:08:14.064Z,8.83
2018-08-03T02:10:45.104Z,8.80
2018-08-03T02:13:15.973Z,8.80
2018-08-03T02:15:46.840Z,8.77
2018-08-03T02:18:17.943Z,8.67
2018-08-03T02:20:48.695Z,8.57
2018-08-03T02:23:19.765Z,9.37
2018-08-03T02:25:51.089Z,8.80
2018-08-03T02:28:21.793Z,8.73
2018-08-03T02:30:52.500Z,7.83
2018-08-03T02:33:23.488Z,9.23
2018-08-03T02:35:54.304Z,8.43
2018-08-03T02:38:25.034Z,7.90
2018-08-03T02:40:55.736Z,8.03
2018-08-03T02:43:26.601Z,8.90
2018-08-03T02:45:57.828Z,9.67
2018-08-03T02:48:28.780Z,8.37
2018-08-03T02:50:59.882Z,9.03
2018-08-03T02:53:30.668Z,9.07
2018-08-03T02:56:01.756Z,9.20
2018-08-03T02:58:32.593Z,9.53
2018-08-03T03:01:03.794Z,8.20
2018-08-03T03:03:34.885Z,10.63
2018-08-03T03:06:05.586Z,9.03
2018-08-03T03:08:36.215Z,8.07
2018-08-03T03:11:07.077Z,10.07
2018-08-03T03:13:38.229Z,8.60
2018-08-03T03:16:08.518Z,8.03
2018-08-03T03:18:38.947Z,8.97
2018-08-03T03:21:10.085Z,7.87
2018-08-03T03:23:41.178Z,7.70
2018-08-03T03:26:12.795Z,8.30
2018-08-03T03:28:43.840Z,10.50
2018-08-03T03:31:15.109Z,8.40
2018-08-03T03:33:46.364Z,9.30
2018-08-03T03:36:17.614Z,8.73
2018-08-03T03:38:48.819Z,8.70
2018-08-03T03:41:20.004Z,11.83
2018-08-03T03:43:51.059Z,9.97
2018-08-03T03:46:21.861Z,9.43
2018-08-03T03:48:52.986Z,8.90
2018-08-03T03:51:23.901Z,10.37
2018-08-03T03:53:54.644Z,10.07
2018-08-03T03:56:25.527Z,10.60
2018-08-03T03:58:56.723Z,9.37
2018-08-03T04:01:27.503Z,8.90
2018-08-03T04:03:58.609Z,11.53
2018-08-03T04:06:29.641Z,9.30
2018-08-03T04:09:00.571Z,13.23
2018-08-03T04:11:31.700Z,10.93
2018-08-03T04:14:02.411Z,12.27
2018-08-03T04:16:33.140Z,10.23
2018-08-03T04:19:04.496Z,10.50
2018-08-03T04:21:35.051Z,11.77
2018-08-03T04:24:06.036Z,12.03
2018-08-03T04:26:36.734Z,13.13
2018-08-03T04:29:07.637Z,11.87
2018-08-03T04:31:38.340Z,13.63
2018-08-03T04:34:08.574Z,11.30
2018-08-03T04:36:53.156Z,11.60
2018-08-03T04:39:23.860Z,9.37
2018-08-03T04:41:55.964Z,9.50
2018-08-03T04:44:42.856Z,9.23
2018-08-03T04:47:13.590Z,9.63
2018-08-03T04:49:44.363Z,9.27
2018-08-03T04:52:16.057Z,9.23
2018-08-03T04:54:46.810Z,8.63
2018-08-03T04:57:17.453Z,8.13
2018-08-03T04:59:48.142Z,8.83
2018-08-03T05:02:18.873Z,10.60
2018-08-03T05:04:49.627Z,8.00
2018-08-03T05:07:21.305Z,12.57
2018-08-03T05:09:52.179Z,8.63
2018-08-03T05:12:22.977Z,7.80
2018-08-03T05:14:53.669Z,8.83
2018-08-03T05:17:24.328Z,7.90
2018-08-03T05:19:55.009Z,10.13
2018-08-03T05:22:25.687Z,8.43
2018-08-03T05:24:56.335Z,8.40
2018-08-03T05:27:26.980Z,8.23
2018-08-03T05:29:57.749Z,8.57
2018-08-03T05:32:28.544Z,8.50
2018-08-03T05:34:59.209Z,7.60
2018-08-03T05:40:38.284Z,7.97
2018-08-03T05:43:12.129Z,9.47
2018-08-03T05:45:42.963Z,8.07
2018-08-03T05:48:13.739Z,10.70
2018-08-03T05:50:44.548Z,9.60
2018-08-03T05:53:15.214Z,9.47
2018-08-03T05:55:45.961Z,8.47
2018-08-03T05:58:16.864Z,8.58
2018-08-03T06:00:47.612Z,8.37
2018-08-03T06:03:18.354Z,8.50
2018-08-03T06:05:49.392Z,12.27
2018-08-03T06:08:20.266Z,8.78
2018-08-03T06:10:55.258Z,9.68
2018-08-03T06:13:25.847Z,8.65
2018-08-03T06:15:56.579Z,9.20
2018-08-03T06:18:27.220Z,10.40
2018-08-03T06:20:58.121Z,9.85
2018-08-03T06:23:28.898Z,8.25
2018-08-03T06:26:00.494Z,8.55
2018-08-03T06:28:31.223Z,8.20
2018-08-03T06:31:02.035Z,8.75
2018-08-03T06:33:32.759Z,9.85
2018-08-03T06:36:03.433Z,9.15
2018-08-03T06:38:34.280Z,9.10
2018-08-03T06:41:05.196Z,12.37
2018-08-03T06:43:36.001Z,9.35
2018-08-03T06:46:06.636Z,9.38
2018-08-03T06:48:54.260Z,10.93
2018-08-03T06:51:24.943Z,8.90
2018-08-03T06:53:55.759Z,8.43
2018-08-03T06:56:26.439Z,9.35
2018-08-03T06:58:57.174Z,8.58
2018-08-03T07:01:27.887Z,10.58
2018-08-03T07:03:58.633Z,9.33
2018-08-03T07:06:29.400Z,9.25
2018-08-03T07:09:00.102Z,8.68
2018-08-03T07:11:30.852Z,8.65
2018-08-03T07:14:01.649Z,8.65
2018-08-03T07:16:32.337Z,9.10
2018-08-03T07:19:03.053Z,9.05
2018-08-03T07:21:33.788Z,8.55
2018-08-03T07:24:04.519Z,9.53
2018-08-03T07:26:35.306Z,8.98
2018-08-03T07:32:12.024Z,9.13
2018-08-03T07:34:42.741Z,9.25
2018-08-03T07:37:13.423Z,8.73
2018-08-03T07:39:44.495Z,10.15
2018-08-03T07:42:15.219Z,9.28
2018-08-03T07:44:46.192Z,10.30
2018-08-03T07:47:16.840Z,9.53
2018-08-03T07:49:47.584Z,9.53
2018-08-03T07:52:18.366Z,8.73
2018-08-03T07:54:49.160Z,9.78
2018-08-03T07:57:19.909Z,10.78
2018-08-03T07:59:50.658Z,9.75
2018-08-03T08:02:21.439Z,10.03
2018-08-03T08:05:14.982Z,9.45
2018-08-03T08:07:45.762Z,10.93
2018-08-03T08:10:16.595Z,9.53
2018-08-03T08:15:43.075Z,9.70
2018-08-03T08:18:13.804Z,10.03
2018-08-03T08:20:44.835Z,10.30
2018-08-03T08:23:15.676Z,10.32
2018-08-03T08:25:54.436Z,10.40
2018-08-03T08:28:25.308Z,10.50
2018-08-03T08:30:56.263Z,10.23
2018-08-03T08:33:27.458Z,11.40
2018-08-03T08:35:58.376Z,10.95
2018-08-03T08:38:29.062Z,10.63
2018-08-03T08:40:59.817Z,10.70
2018-08-03T08:43:30.635Z,11.95
2018-08-03T08:46:01.441Z,12.60
2018-08-03T08:48:32.080Z,10.80
2018-08-03T08:51:02.817Z,11.03
2018-08-03T08:53:33.572Z,11.48
2018-08-03T08:56:04.326Z,10.55
2018-08-03T08:58:35.295Z,10.70
2018-08-03T09:01:06.385Z,13.43
2018-08-03T09:03:42.614Z,10.55
2018-08-03T09:06:13.379Z,10.45
2018-08-03T09:08:44.161Z,10.43
2018-08-03T09:11:14.942Z,11.10
2018-08-03T09:13:46.294Z,13.20
2018-08-03T09:16:17.348Z,10.95
2018-08-03T09:18:48.228Z,10.72
2018-08-03T09:24:28.034Z,12.60
2018-08-03T09:26:59.383Z,10.43
2018-08-03T09:29:30.778Z,12.58
2018-08-03T09:38:23.800Z,12.03
2018-08-03T09:40:54.504Z,11.53
2018-08-03T09:43:25.217Z,12.75
2018-08-03T09:48:57.898Z,10.85
2018-08-03T09:51:28.676Z,11.48
2018-08-03T09:53:59.387Z,11.93
2018-08-03T09:56:30.049Z,10.82
2018-08-03T09:59:00.774Z,10.60
2018-08-03T10:01:31.559Z,12.95
2018-08-03T10:04:02.207Z,12.18
2018-08-03T10:06:32.979Z,11.15
2018-08-03T10:09:03.835Z,12.53
2018-08-03T10:11:34.729Z,11.40
2018-08-03T10:14:05.376Z,11.22
2018-08-03T10:16:36.131Z,12.95
2018-08-03T10:19:06.782Z,11.10
2018-08-03T10:21:37.521Z,10.98
2018-08-03T10:24:09.745Z,14.35
2018-08-03T10:26:40.626Z,11.73
2018-08-03T10:29:11.374Z,11.10
2018-08-03T10:31:42.094Z,10.23
2018-08-03T10:34:13.000Z,11.30
2018-08-03T10:39:54.483Z,13.28
2018-08-03T10:42:24.843Z,11.18
2018-08-03T10:44:55.358Z,10.35
2018-08-03T10:47:26.286Z,10.65
2018-08-03T10:49:57.247Z,11.15
2018-08-03T10:52:28.087Z,10.28
2018-08-03T10:58:22.575Z,9.83
2018-08-03T11:00:53.496Z,10.68
2018-08-03T11:03:24.518Z,10.28
2018-08-03T11:06:09.306Z,10.63
2018-08-03T11:08:40.417Z,11.65
2018-08-03T11:11:11.366Z,10.75
2018-08-03T11:13:42.439Z,10.82
2018-08-03T11:16:13.631Z,11.73
2018-08-03T11:18:44.800Z,10.63
2018-08-03T11:21:15.843Z,11.57
2018-08-03T11:23:46.744Z,10.55
2018-08-03T11:26:23.478Z,10.18
2018-08-03T11:28:54.200Z,10.80
2018-08-03T11:31:25.323Z,10.68
2018-08-03T11:33:56.012Z,13.98
2018-08-03T11:36:26.721Z,10.00
2018-08-03T11:42:04.511Z,10.43
2018-08-03T11:44:35.382Z,10.38
2018-08-03T11:47:06.132Z,10.63
2018-08-03T11:49:36.740Z,9.65
2018-08-03T11:52:08.419Z,10.78
2018-08-03T11:54:39.446Z,10.93
2018-08-03T12:00:20.481Z,11.38
2018-08-03T12:02:51.202Z,11.68
2018-08-03T12:05:21.866Z,10.58
2018-08-03T12:07:52.554Z,10.82
2018-08-03T12:10:23.382Z,10.93
2018-08-03T12:12:54.446Z,12.68
2018-08-03T12:15:25.177Z,10.15
2018-08-03T12:17:55.933Z,10.30
2018-08-03T12:20:26.532Z,9.78
2018-08-03T12:22:57.219Z,10.15
2018-08-03T12:25:27.958Z,10.25
2018-08-03T12:27:58.646Z,10.65
2018-08-03T12:30:29.508Z,9.78
2018-08-03T12:33:00.551Z,9.35
2018-08-03T12:38:32.329Z,9.50
2018-08-03T12:41:03.369Z,10.85
2018-08-03T12:43:34.424Z,9.98
2018-08-03T12:46:05.689Z,9.30
2018-08-03T12:48:37.029Z,9.05
2018-08-03T12:51:08.716Z,8.63
2018-08-03T12:53:39.814Z,9.28
2018-08-03T12:56:10.695Z,9.08
2018-08-03T12:58:41.432Z,11.03
2018-08-03T13:01:12.343Z,10.15
2018-08-03T13:03:42.939Z,10.28
2018-08-03T13:06:13.528Z,9.85
2018-08-03T13:08:44.129Z,10.15
2018-08-03T13:11:14.828Z,10.28
2018-08-03T13:13:45.803Z,11.43
2018-08-03T13:16:16.756Z,9.88
2018-08-03T13:18:47.604Z,10.00
2018-08-03T13:21:29.186Z,9.83
2018-08-03T13:24:01.089Z,10.00
2018-08-03T13:26:31.951Z,10.40
2018-08-03T13:29:02.782Z,10.82
2018-08-03T13:31:33.489Z,10.65
2018-08-03T13:34:04.379Z,10.38
2018-08-03T13:36:35.048Z,10.08
2018-08-03T13:39:08.564Z,11.85
2018-08-03T13:41:39.343Z,9.83
2018-08-03T13:44:10.069Z,10.65
2018-08-03T13:46:40.635Z,9.90
2018-08-03T13:49:11.365Z,10.03
2018-08-03T13:51:59.506Z,10.25
2018-08-03T13:54:30.241Z,10.45
2018-08-03T13:57:00.931Z,10.40
2018-08-03T13:59:31.623Z,9.73
2018-08-03T14:02:12.978Z,10.18
2018-08-03T14:04:43.684Z,9.65
2018-08-03T14:07:14.436Z,9.08
2018-08-03T14:09:45.143Z,9.98
2018-08-03T14:12:15.926Z,9.85
2018-08-03T14:14:46.614Z,10.20
2018-08-03T14:17:17.368Z,9.93
2018-08-03T14:19:48.287Z,9.28
2018-08-03T14:22:19.104Z,10.50
2018-08-03T14:24:49.888Z,10.68
2018-08-03T14:27:20.611Z,9.63
2018-08-03T14:29:51.618Z,10.05
2018-08-03T14:32:22.813Z,11.90
2018-08-03T14:34:53.783Z,9.28
2018-08-03T14:37:46.214Z,9.55
2018-08-03T14:40:16.568Z,9.45
2018-08-03T14:42:47.389Z,9.35
2018-08-03T14:45:18.429Z,9.50
2018-08-03T14:50:50.783Z,9.60
2018-08-03T14:53:21.410Z,10.25
2018-08-03T14:55:52.024Z,9.60
2018-08-03T14:58:23.183Z,9.10
2018-08-03T15:00:54.262Z,10.08
2018-08-03T15:03:35.174Z,9.58
2018-08-03T15:06:05.646Z,10.78
2018-08-03T15:08:36.301Z,9.50
2018-08-03T15:11:07.194Z,10.90
2018-08-03T15:13:37.874Z,8.90
2018-08-03T15:16:08.687Z,10.32
2018-08-03T15:18:39.107Z,10.58
2018-08-03T15:21:09.583Z,9.45
2018-08-03T15:23:40.383Z,9.30
2018-08-03T15:26:11.224Z,10.30
2018-08-03T15:28:41.952Z,9.23
2018-08-03T15:31:12.690Z,9.60
2018-08-03T15:33:43.350Z,9.28
2018-08-03T15:36:14.068Z,8.93
2018-08-03T15:38:44.754Z,9.20
2018-08-03T15:41:15.440Z,9.68
2018-08-03T15:43:46.057Z,9.45
2018-08-03T15:46:16.803Z,10.40
2018-08-03T15:48:53.092Z,8.95
2018-08-03T15:51:23.712Z,9.73
2018-08-03T15:53:54.337Z,9.13
2018-08-03T15:56:25.077Z,10.00
2018-08-03T15:58:55.857Z,9.53
2018-08-03T16:01:26.576Z,10.55
2018-08-03T16:03:57.337Z,8.78
2018-08-03T16:06:28.050Z,9.50
2018-08-03T16:08:58.723Z,8.90
2018-08-03T16:11:29.382Z,8.95
2018-08-03T16:14:00.097Z,9.38
2018-08-03T16:16:30.783Z,9.78
2018-08-03T16:19:01.489Z,9.48
2018-08-03T16:21:32.464Z,9.58
2018-08-03T16:24:03.358Z,9.80
2018-08-03T16:26:34.070Z,8.95
2018-08-03T16:29:04.835Z,12.07
2018-08-03T16:31:35.559Z,9.45
2018-08-03T16:34:06.323Z,9.30
2018-08-03T16:36:37.032Z,9.13
2018-08-03T16:39:30.204Z,9.53
2018-08-03T16:42:00.902Z,9.68
2018-08-03T16:44:31.591Z,9.88
2018-08-03T16:47:02.315Z,11.10
2018-08-03T16:49:33.013Z,9.35
2018-08-03T16:52:03.707Z,10.15
2018-08-03T16:54:34.465Z,10.00
2018-08-03T16:57:05.104Z,9.35
2018-08-03T16:59:35.812Z,9.10
2018-08-03T17:02:06.696Z,9.53
2018-08-03T17:04:37.322Z,9.28
2018-08-03T17:07:08.045Z,10.50
2018-08-03T17:09:38.682Z,9.13
2018-08-03T17:12:09.553Z,9.13
2018-08-03T17:14:40.284Z,9.50
2018-08-03T17:17:10.956Z,11.00
2018-08-03T17:19:41.683Z,9.50
2018-08-03T17:22:12.628Z,12.65
2018-08-03T17:24:43.360Z,10.32
2018-08-03T17:27:14.047Z,9.73
2018-08-03T17:29:44.769Z,9.73
2018-08-03T17:32:15.891Z,9.95
2018-08-03T17:34:46.942Z,10.38
2018-08-03T17:37:17.740Z,10.32
2018-08-03T17:39:48.515Z,9.88
2018-08-03T17:42:19.226Z,9.93
2018-08-03T17:44:49.849Z,10.25
2018-08-03T17:47:20.507Z,10.23
2018-08-03T17:49:51.174Z,10.00
2018-08-03T17:52:21.769Z,9.53
2018-08-03T17:54:52.863Z,10.85
2018-08-03T17:57:24.846Z,10.63
2018-08-03T17:59:55.621Z,9.83
2018-08-03T18:02:32.457Z,10.23
2018-08-03T18:05:03.505Z,9.85
2018-08-03T18:07:33.934Z,11.90
2018-08-03T18:10:04.727Z,9.73
2018-08-03T18:12:35.340Z,10.32
2018-08-03T18:15:07.296Z,11.60
2018-08-03T18:17:37.933Z,10.23
2018-08-03T18:20:08.981Z,10.32
2018-08-03T18:22:39.698Z,9.75
2018-08-03T18:25:10.377Z,10.43
2018-08-03T18:27:41.107Z,9.50
2018-08-03T18:30:11.289Z,10.32
2018-08-03T18:32:41.758Z,10.18
2018-08-03T18:35:12.418Z,9.73
2018-08-03T18:37:43.162Z,10.43
2018-08-03T18:40:13.993Z,10.63
2018-08-03T18:42:44.724Z,10.82
2018-08-03T18:45:15.493Z,10.80
2018-08-03T18:47:46.247Z,10.58
2018-08-03T18:50:16.939Z,12.58
2018-08-03T18:52:47.529Z,11.28
2018-08-03T18:55:18.292Z,11.50
2018-08-03T18:57:49.029Z,11.48
2018-08-03T19:00:19.804Z,11.20
2018-08-03T19:02:50.478Z,11.12
2018-08-03T19:05:21.149Z,10.75
2018-08-03T19:07:51.817Z,11.93
2018-08-03T19:10:22.562Z,11.28
2018-08-03T19:12:53.286Z,11.15
2018-08-03T19:15:24.047Z,11.85
2018-08-03T19:17:54.747Z,11.75
2018-08-03T19:20:25.433Z,11.22
2018-08-03T19:22:56.163Z,10.75
2018-08-03T19:25:26.861Z,11.18
2018-08-03T19:27:57.624Z,11.15
2018-08-03T19:30:28.341Z,11.18
2018-08-03T19:33:11.801Z,11.45
2018-08-03T19:35:42.702Z,12.03
2018-08-03T19:38:13.390Z,10.68
2018-08-03T19:40:44.026Z,12.23
2018-08-03T19:43:14.723Z,13.18
2018-08-03T19:45:45.419Z,13.08
2018-08-03T19:48:16.130Z,12.28
2018-08-03T19:50:46.820Z,11.70
2018-08-03T19:53:17.563Z,12.53
2018-08-03T19:55:48.333Z,11.43
2018-08-03T19:58:19.079Z,11.85
2018-08-03T20:00:49.845Z,11.57
2018-08-03T20:03:20.587Z,11.40
2018-08-03T20:05:51.334Z,11.38
2018-08-03T20:08:22.019Z,12.10
2018-08-03T20:10:52.796Z,12.23
2018-08-03T20:13:23.561Z,11.85
2018-08-03T20:15:54.527Z,12.37
2018-08-03T20:18:25.206Z,13.03
2018-08-03T20:20:55.820Z,13.50
2018-08-03T20:23:42.651Z,13.18
2018-08-03T20:26:13.624Z,12.55
2018-08-03T20:28:44.350Z,12.50
2018-08-03T20:31:15.053Z,13.00
2018-08-03T20:33:45.729Z,14.30
2018-08-03T20:36:16.458Z,12.35
2018-08-03T20:38:47.206Z,12.25
2018-08-03T20:41:18.023Z,11.85
2018-08-03T20:43:48.693Z,12.10
2018-08-03T20:46:23.498Z,12.68
2018-08-03T20:48:54.630Z,12.58
2018-08-03T20:51:25.531Z,11.95
2018-08-03T20:53:56.294Z,11.63
2018-08-03T20:56:27.006Z,14.50
2018-08-03T20:58:57.796Z,12.80
2018-08-03T21:01:28.489Z,12.40
2018-08-03T21:03:59.478Z,12.58
2018-08-03T21:06:30.279Z,12.70
2018-08-03T21:09:01.016Z,12.07
2018-08-03T21:11:31.807Z,13.28
2018-08-03T21:14:02.682Z,12.75
2018-08-03T21:16:33.487Z,12.55
2018-08-03T21:19:05.178Z,12.80
2018-08-03T21:21:36.960Z,13.90
2018-08-03T21:24:07.891Z,13.28
2018-08-03T21:26:39.122Z,13.03
2018-08-03T21:29:10.152Z,12.65
2018-08-03T21:31:41.065Z,13.50
2018-08-03T21:34:11.831Z,12.60
2018-08-03T21:36:42.910Z,12.82
2018-08-03T21:39:13.832Z,13.45
2018-08-03T21:41:44.860Z,13.00
2018-08-03T21:44:15.607Z,12.75
2018-08-03T21:46:46.428Z,12.43
2018-08-03T21:49:17.533Z,12.50
2018-08-03T21:51:48.198Z,11.78
2018-08-03T21:54:18.923Z,13.50
2018-08-03T21:56:49.674Z,14.25
2018-08-03T21:59:20.715Z,12.93
2018-08-03T22:01:51.056Z,13.55
2018-08-03T22:04:22.046Z,13.20
2018-08-03T22:06:53.093Z,12.40
2018-08-03T22:09:24.118Z,13.28
2018-08-03T22:11:55.159Z,12.88
2018-08-03T22:14:25.936Z,13.60
2018-08-03T22:16:56.927Z,13.08
2018-08-03T22:19:28.022Z,13.10
2018-08-03T22:21:59.178Z,13.05
2018-08-03T22:24:29.918Z,14.35
2018-08-03T22:27:00.866Z,12.85
2018-08-03T22:29:31.866Z,15.90
2018-08-03T22:32:02.824Z,13.25
2018-08-03T22:34:33.759Z,12.68
2018-08-03T22:37:04.487Z,12.93
2018-08-03T22:39:35.194Z,13.32
2018-08-03T22:42:06.083Z,12.98
2018-08-03T22:44:37.124Z,12.25
2018-08-03T22:47:07.846Z,12.60
2018-08-03T22:49:38.797Z,12.68
2018-08-03T22:52:09.629Z,12.90
2018-08-03T22:54:40.723Z,13.45
2018-08-03T22:57:11.600Z,13.25
2018-08-03T22:59:43.355Z,12.50
2018-08-03T23:02:14.190Z,13.32
2018-08-03T23:04:45.153Z,12.85
2018-08-03T23:07:16.115Z,12.90
2018-08-03T23:09:47.102Z,12.30
2018-08-03T23:12:18.112Z,11.75
2018-08-03T23:14:49.117Z,13.62
2018-08-03T23:17:20.238Z,12.53
2018-08-03T23:19:51.035Z,12.20
2018-08-03T23:22:21.836Z,12.35
2018-08-03T23:24:52.523Z,13.40
2018-08-03T23:27:23.595Z,16.32
2018-08-03T23:29:54.477Z,13.25
2018-08-03T23:32:25.321Z,12.93
2018-08-03T23:34:56.079Z,13.62
2018-08-03T23:37:26.853Z,13.10
2018-08-03T23:39:57.540Z,14.03
2018-08-03T23:42:28.304Z,13.43
2018-08-03T23:44:59.049Z,14.28
2018-08-03T23:47:29.823Z,14.35
2018-08-03T23:50:00.696Z,13.48
2018-08-03T23:52:31.399Z,14.00
2018-08-03T23:55:02.322Z,14.90
2018-08-03T23:57:33.410Z,13.78
